Hurricane, Mississippi
Current Conditions -  °F | °C
As of 11:35 AM on Friday 31 Oct 2014 (Local Time) from KUOX Reporting Station
Scattered Clouds Scattered Clouds  
Wind Chill: 59°   Ceiling: Unl
Heat Index: 59°   Visibility: 10mi
Dew Point: 46°   Wind: 15mph
Humidity: 63%   Direction: 350°N
Pressure: 30.1"   Gusts: 20mph
Location:  34.3046°N, 89.1605°W
Report Text: KUOX 311635Z AUTO 35013G17KT 10SM SCT029 15/08 A3010 RMK AO2 PWINO PNO
Loading
Personal Weather Stations






























Interactive Weather Map
Tropical Storm Tracking
New forecast layout! Learn more

10-Day Weather Forecast

Advertisements
Track Severe Weather on mobile